Time;durP1;ratioP1;P1;durP2;ratioP2;P2;SDS_P1;SDS_P2;PMS_P1;PMS_P2;Temp;Humidity;BMP_temperature;BMP_pressure;BME280_temperature;BME280_humidity;BME280_pressure;Samples;Min_cycle;Max_cycle;Signal;HPM_P1;HPM_P2
2020/12/19 00:00:30;;;;;;;180.80;81.70;;;;;;;;;;4978887;28;20241;-78
2020/12/19 00:02:55;;;;;;;183.80;81.53;;;;;;;;;;4997197;28;20181;-78
2020/12/19 00:05:21;;;;;;;169.97;79.07;;;;;;;;;;4996783;28;20252;-77
2020/12/19 00:07:46;;;;;;;165.77;80.10;;;;;;;;;;4996501;28;20248;-77
2020/12/19 00:10:11;;;;;;;196.43;86.77;;;;;;;;;;4979219;28;20193;-78
2020/12/19 00:12:37;;;;;;;190.10;85.83;;;;;;;;;;4996277;28;20190;-77
2020/12/19 00:15:02;;;;;;;211.93;92.80;;;;;;;;;;4996470;28;20209;-78
2020/12/19 00:17:27;;;;;;;234.63;95.10;;;;;;;;;;4996261;28;20574;-78
2020/12/19 00:19:53;;;;;;;264.87;107.13;;;;;;;;;;4996065;28;20170;-81
2020/12/19 00:22:21;;;;;;;200.93;85.53;;;;;;;;;;4996210;28;20553;-78
2020/12/19 00:24:46;;;;;;;190.33;86.27;;;;;;;;;;4996123;28;20174;-78
2020/12/19 00:27:12;;;;;;;189.63;82.50;;;;;;;;;;4995903;28;20173;-78
2020/12/19 00:29:38;;;;;;;210.77;97.17;;;;;;;;;;4995890;28;20189;-78
2020/12/19 00:32:03;;;;;;;190.23;86.37;;;;;;;;;;4995829;28;20229;-78
2020/12/19 00:34:29;;;;;;;238.67;101.13;;;;;;;;;;4994987;28;20182;-79
2020/12/19 00:36:54;;;;;;;234.87;99.63;;;;;;;;;;4995487;28;20174;-81
2020/12/19 00:39:20;;;;;;;220.57;96.60;;;;;;;;;;4996079;28;20619;-77
2020/12/19 00:41:46;;;;;;;216.93;95.37;;;;;;;;;;4995594;28;20248;-78
2020/12/19 00:44:11;;;;;;;206.97;96.17;;;;;;;;;;4995754;28;20253;-77
2020/12/19 00:46:37;;;;;;;200.93;91.27;;;;;;;;;;4995727;28;20613;-78
2020/12/19 00:49:03;;;;;;;190.70;86.67;;;;;;;;;;4995689;28;20166;-78
2020/12/19 00:51:29;;;;;;;182.13;87.00;;;;;;;;;;4995653;28;20169;-78
2020/12/19 00:53:55;;;;;;;177.97;81.37;;;;;;;;;;4995475;28;20691;-78
2020/12/19 00:56:20;;;;;;;181.23;82.77;;;;;;;;;;4995661;28;20651;-78
2020/12/19 00:58:46;;;;;;;171.77;78.63;;;;;;;;;;4995559;28;20182;-78
2020/12/19 01:01:12;;;;;;;186.97;80.97;;;;;;;;;;4995080;28;20249;-78
2020/12/19 01:03:37;;;;;;;182.37;80.27;;;;;;;;;;4995181;28;20174;-78
2020/12/19 01:06:03;;;;;;;155.70;72.60;;;;;;;;;;4995653;28;20177;-77
2020/12/19 01:08:28;;;;;;;188.50;79.97;;;;;;;;;;4995678;28;20296;-78
2020/12/19 01:10:53;;;;;;;165.87;75.13;;;;;;;;;;4978127;28;20174;-77
2020/12/19 01:13:19;;;;;;;175.67;78.97;;;;;;;;;;4995057;28;20202;-77
2020/12/19 01:15:44;;;;;;;169.13;77.10;;;;;;;;;;4994935;28;20685;-77
2020/12/19 01:18:09;;;;;;;147.07;68.03;;;;;;;;;;4995088;28;20579;-77
2020/12/19 01:20:35;;;;;;;164.67;82.73;;;;;;;;;;4995132;28;20213;-77
2020/12/19 01:23:00;;;;;;;184.17;78.93;;;;;;;;;;4994724;28;20178;-79
2020/12/19 01:25:25;;;;;;;169.93;70.53;;;;;;;;;;4995056;28;20177;-77
2020/12/19 01:27:51;;;;;;;160.93;73.00;;;;;;;;;;4994658;28;20170;-77
2020/12/19 01:30:16;;;;;;;178.23;75.43;;;;;;;;;;4994569;28;20178;-78
2020/12/19 01:32:41;;;;;;;202.40;82.73;;;;;;;;;;4994745;28;20207;-78
2020/12/19 01:35:07;;;;;;;219.47;79.40;;;;;;;;;;4994461;28;20178;-77
2020/12/19 01:37:32;;;;;;;174.63;72.10;;;;;;;;;;4994716;28;20170;-78
2020/12/19 01:39:57;;;;;;;170.97;72.73;;;;;;;;;;4994731;28;20613;-78
2020/12/19 01:42:23;;;;;;;200.40;81.17;;;;;;;;;;4994658;28;20189;-78
2020/12/19 01:44:49;;;;;;;226.17;76.10;;;;;;;;;;4994615;28;20170;-78
2020/12/19 01:47:14;;;;;;;241.63;76.13;;;;;;;;;;4994336;28;20613;-77
2020/12/19 01:49:40;;;;;;;206.87;71.27;;;;;;;;;;4994434;28;20185;-77
2020/12/19 01:52:06;;;;;;;283.97;74.33;;;;;;;;;;4994084;28;20221;-77
2020/12/19 01:54:31;;;;;;;214.97;66.40;;;;;;;;;;4994188;28;20628;-80
2020/12/19 01:56:57;;;;;;;183.53;64.83;;;;;;;;;;4994621;28;20174;-78
2020/12/19 01:59:24;;;;;;;195.83;71.43;;;;;;;;;;4993854;28;20174;-78
2020/12/19 02:01:50;;;;;;;276.87;73.17;;;;;;;;;;4994497;28;20549;-78
2020/12/19 02:04:15;;;;;;;328.43;74.33;;;;;;;;;;5009869;28;20225;-77
2020/12/19 02:06:42;;;;;;;281.87;75.83;;;;;;;;;;4995222;28;20174;-77
2020/12/19 02:09:07;;;;;;;239.27;71.23;;;;;;;;;;5009688;28;20265;-77
2020/12/19 02:11:33;;;;;;;351.67;78.47;;;;;;;;;;4994409;28;20258;-78
2020/12/19 02:13:58;;;;;;;275.67;75.23;;;;;;;;;;4994070;28;20201;-77
2020/12/19 02:16:23;;;;;;;184.60;67.50;;;;;;;;;;4994004;28;20260;-78
2020/12/19 02:18:49;;;;;;;175.67;64.40;;;;;;;;;;4994180;28;20180;-77
2020/12/19 02:21:14;;;;;;;172.23;65.63;;;;;;;;;;4993646;28;20200;-77
2020/12/19 02:23:39;;;;;;;117.07;53.13;;;;;;;;;;4993640;28;20182;-77
2020/12/19 02:26:05;;;;;;;103.33;52.83;;;;;;;;;;4993639;28;20221;-78
2020/12/19 02:28:30;;;;;;;230.97;106.43;;;;;;;;;;4993774;28;20178;-77
2020/12/19 02:30:56;;;;;;;174.27;85.60;;;;;;;;;;4994041;28;20173;-77
2020/12/19 02:33:21;;;;;;;108.07;53.23;;;;;;;;;;4993476;28;20235;-77
2020/12/19 02:35:46;;;;;;;105.03;50.77;;;;;;;;;;4993704;28;20203;-77
2020/12/19 02:38:12;;;;;;;103.43;51.63;;;;;;;;;;4993760;28;20527;-77
2020/12/19 02:40:37;;;;;;;96.83;48.73;;;;;;;;;;4993783;28;20174;-77
2020/12/19 02:43:03;;;;;;;94.53;49.60;;;;;;;;;;4993608;28;20268;-77
2020/12/19 02:45:28;;;;;;;96.63;47.50;;;;;;;;;;4993169;28;20170;-77
2020/12/19 02:47:53;;;;;;;90.37;47.23;;;;;;;;;;4993273;28;20177;-77
2020/12/19 02:50:19;;;;;;;95.43;48.53;;;;;;;;;;4993184;28;20178;-77
2020/12/19 02:52:44;;;;;;;95.33;49.20;;;;;;;;;;4993231;28;20280;-77
2020/12/19 02:55:09;;;;;;;92.87;48.87;;;;;;;;;;4993277;28;20541;-77
2020/12/19 02:57:35;;;;;;;95.47;49.00;;;;;;;;;;4992923;28;20181;-77
2020/12/19 03:00:00;;;;;;;93.90;46.80;;;;;;;;;;4987316;28;20226;-77
2020/12/19 03:02:25;;;;;;;96.50;49.10;;;;;;;;;;4974065;28;21051;-78
2020/12/19 03:04:51;;;;;;;117.77;61.20;;;;;;;;;;4974410;28;20166;-78
2020/12/19 03:07:16;;;;;;;110.73;57.73;;;;;;;;;;4973668;28;20233;-78
2020/12/19 03:09:41;;;;;;;116.97;57.77;;;;;;;;;;4973787;28;20179;-78
2020/12/19 03:12:07;;;;;;;99.13;52.70;;;;;;;;;;4973705;28;20205;-82
2020/12/19 03:14:32;;;;;;;102.03;52.40;;;;;;;;;;4973775;28;20178;-77
2020/12/19 03:16:57;;;;;;;100.20;51.00;;;;;;;;;;4974137;28;20578;-78
2020/12/19 03:19:23;;;;;;;105.80;50.93;;;;;;;;;;4973488;28;20500;-78
2020/12/19 03:21:48;;;;;;;110.03;54.37;;;;;;;;;;4973761;28;20194;-77
2020/12/19 03:24:13;;;;;;;116.80;53.47;;;;;;;;;;4973642;28;20178;-78
2020/12/19 03:26:39;;;;;;;133.00;62.37;;;;;;;;;;4973665;28;20181;-79
2020/12/19 03:29:04;;;;;;;164.00;73.50;;;;;;;;;;4973790;28;20197;-77
2020/12/19 03:31:29;;;;;;;142.70;65.63;;;;;;;;;;4973394;28;20185;-78
2020/12/19 03:33:55;;;;;;;171.97;84.87;;;;;;;;;;4973561;28;20210;-77
2020/12/19 03:36:20;;;;;;;131.97;57.37;;;;;;;;;;4973872;28;20644;-77
2020/12/19 03:38:45;;;;;;;111.80;54.90;;;;;;;;;;4973685;28;20171;-77
2020/12/19 03:41:11;;;;;;;119.37;52.80;;;;;;;;;;4973594;28;20519;-77
2020/12/19 03:43:37;;;;;;;122.17;55.83;;;;;;;;;;4974044;28;20637;-77
2020/12/19 03:46:02;;;;;;;113.47;55.73;;;;;;;;;;4973418;28;20241;-78
2020/12/19 03:48:27;;;;;;;125.87;58.97;;;;;;;;;;4973589;28;20198;-78
2020/12/19 03:50:53;;;;;;;130.50;65.03;;;;;;;;;;4973187;28;20207;-77
2020/12/19 03:53:18;;;;;;;194.10;105.10;;;;;;;;;;4973490;28;20240;-78
2020/12/19 03:55:44;;;;;;;108.00;53.83;;;;;;;;;;4973451;28;20225;-78
2020/12/19 03:58:09;;;;;;;106.67;50.60;;;;;;;;;;4973474;28;20310;-77
2020/12/19 04:00:34;;;;;;;112.50;53.07;;;;;;;;;;4983676;28;20257;-77
2020/12/19 04:03:00;;;;;;;168.77;88.17;;;;;;;;;;4992564;28;20177;-77
2020/12/19 04:05:25;;;;;;;159.33;79.17;;;;;;;;;;4992561;28;20525;-78
2020/12/19 04:07:50;;;;;;;168.70;85.83;;;;;;;;;;4993047;28;20198;-77
2020/12/19 04:10:16;;;;;;;125.73;64.33;;;;;;;;;;4995412;28;20561;-78
2020/12/19 04:12:41;;;;;;;112.03;57.77;;;;;;;;;;4996616;28;20202;-78
2020/12/19 04:15:07;;;;;;;147.80;74.47;;;;;;;;;;4996249;28;20274;-78
2020/12/19 04:17:33;;;;;;;115.03;54.43;;;;;;;;;;4995836;28;20640;-78
2020/12/19 04:19:58;;;;;;;143.70;75.00;;;;;;;;;;4995955;28;20240;-78
2020/12/19 04:22:24;;;;;;;155.17;89.00;;;;;;;;;;4996201;28;20619;-78
2020/12/19 04:24:49;;;;;;;134.27;66.60;;;;;;;;;;4996141;28;20589;-78
2020/12/19 04:27:14;;;;;;;130.87;65.30;;;;;;;;;;4996136;28;20172;-79
2020/12/19 04:29:40;;;;;;;150.83;79.30;;;;;;;;;;4997916;28;20269;-77
2020/12/19 04:32:05;;;;;;;145.73;74.87;;;;;;;;;;5014854;28;20170;-77
2020/12/19 04:34:30;;;;;;;162.07;78.83;;;;;;;;;;5002746;28;20174;-78
2020/12/19 04:36:56;;;;;;;139.13;72.00;;;;;;;;;;4996242;28;20178;-78
2020/12/19 04:39:21;;;;;;;132.87;69.77;;;;;;;;;;4996014;28;20660;-78
2020/12/19 04:41:47;;;;;;;163.67;88.57;;;;;;;;;;4995751;28;20177;-77
2020/12/19 04:44:12;;;;;;;127.63;64.00;;;;;;;;;;4996635;28;20177;-77
2020/12/19 04:46:40;;;;;;;148.80;73.17;;;;;;;;;;4995807;28;20166;-77
2020/12/19 04:49:05;;;;;;;145.10;73.37;;;;;;;;;;4995343;28;20603;-78
2020/12/19 04:51:32;;;;;;;126.70;63.77;;;;;;;;;;4995373;28;20193;-77
2020/12/19 04:53:57;;;;;;;99.17;50.60;;;;;;;;;;4995263;28;20557;-78
2020/12/19 04:56:23;;;;;;;97.70;50.27;;;;;;;;;;4995262;28;20174;-77
2020/12/19 04:58:52;;;;;;;89.30;45.70;;;;;;;;;;4995488;28;20177;-78
2020/12/19 05:01:18;;;;;;;82.53;42.53;;;;;;;;;;4995180;28;20230;-77
2020/12/19 05:03:45;;;;;;;94.13;43.80;;;;;;;;;;4995817;28;20239;-77
2020/12/19 05:06:10;;;;;;;181.03;64.60;;;;;;;;;;4995541;28;20193;-77
2020/12/19 05:08:36;;;;;;;135.33;58.73;;;;;;;;;;4995425;28;20173;-77
2020/12/19 05:11:01;;;;;;;130.87;46.53;;;;;;;;;;4995188;28;20202;-77
2020/12/19 05:13:27;;;;;;;106.57;47.50;;;;;;;;;;4995000;28;20201;-78
2020/12/19 05:15:53;;;;;;;111.40;42.27;;;;;;;;;;4995271;28;20251;-78
2020/12/19 05:18:18;;;;;;;140.17;50.33;;;;;;;;;;4995150;28;20174;-78
2020/12/19 05:20:44;;;;;;;137.97;62.90;;;;;;;;;;4994549;28;20181;-77
2020/12/19 05:23:11;;;;;;;115.97;48.23;;;;;;;;;;4995035;28;20182;-77
2020/12/19 05:25:38;;;;;;;116.27;50.30;;;;;;;;;;4994954;28;20257;-77
2020/12/19 05:28:03;;;;;;;92.63;40.47;;;;;;;;;;4994952;28;20174;-78
2020/12/19 05:30:29;;;;;;;84.40;35.13;;;;;;;;;;4994690;28;20525;-78
2020/12/19 05:32:54;;;;;;;96.47;41.83;;;;;;;;;;4994563;28;20548;-78
2020/12/19 05:35:21;;;;;;;142.97;41.53;;;;;;;;;;4994838;28;20170;-78
2020/12/19 05:37:59;;;;;;;125.77;38.67;;;;;;;;;;4995023;28;20182;-78
2020/12/19 05:40:25;;;;;;;143.37;46.53;;;;;;;;;;4994724;28;20174;-78
2020/12/19 05:42:51;;;;;;;137.33;42.67;;;;;;;;;;4994731;28;20178;-78
2020/12/19 05:45:17;;;;;;;131.47;38.57;;;;;;;;;;4994830;28;20180;-78
2020/12/19 05:47:43;;;;;;;88.00;35.10;;;;;;;;;;4994561;28;20173;-78
2020/12/19 05:50:08;;;;;;;93.37;32.60;;;;;;;;;;4994302;28;20174;-78
2020/12/19 05:52:35;;;;;;;93.20;35.97;;;;;;;;;;4994431;28;20194;-78
2020/12/19 05:55:02;;;;;;;84.73;33.83;;;;;;;;;;4994138;28;20236;-78
2020/12/19 05:57:28;;;;;;;90.97;31.47;;;;;;;;;;4994206;28;20178;-78
2020/12/19 05:59:54;;;;;;;73.50;31.90;;;;;;;;;;4994047;28;20304;-78
2020/12/19 06:02:20;;;;;;;82.20;28.07;;;;;;;;;;4994327;28;20216;-78
2020/12/19 06:04:47;;;;;;;80.27;31.53;;;;;;;;;;4994296;28;20290;-78
2020/12/19 06:07:12;;;;;;;83.37;24.37;;;;;;;;;;4994180;28;20520;-77
2020/12/19 06:09:39;;;;;;;90.53;26.40;;;;;;;;;;4993894;28;20165;-78
2020/12/19 06:12:08;;;;;;;88.70;27.13;;;;;;;;;;4994073;28;20225;-78
2020/12/19 06:14:40;;;;;;;69.57;24.77;;;;;;;;;;4994130;28;20178;-78
2020/12/19 06:17:29;;;;;;;71.73;25.83;;;;;;;;;;4993692;28;20169;-78
2020/12/19 06:19:55;;;;;;;96.93;34.07;;;;;;;;;;4983310;28;20196;-79
2020/12/19 06:22:27;;;;;;;67.40;24.77;;;;;;;;;;4993884;28;20182;-78
2020/12/19 06:24:53;;;;;;;61.07;23.43;;;;;;;;;;4993917;28;20309;-81
2020/12/19 06:27:18;;;;;;;73.73;25.13;;;;;;;;;;4994630;28;20198;-78
2020/12/19 06:29:43;;;;;;;64.90;24.67;;;;;;;;;;4993520;28;20174;-78
2020/12/19 06:32:17;;;;;;;49.20;23.70;;;;;;;;;;4993278;28;20310;-77
2020/12/19 06:34:43;;;;;;;66.17;26.77;;;;;;;;;;4993292;28;20227;-77
2020/12/19 06:37:12;;;;;;;81.97;31.83;;;;;;;;;;4993373;28;20257;-78
2020/12/19 06:39:38;;;;;;;84.67;28.23;;;;;;;;;;4993387;28;20174;-78
2020/12/19 06:42:03;;;;;;;106.97;45.80;;;;;;;;;;4993371;28;20245;-78
2020/12/19 06:44:30;;;;;;;69.03;30.40;;;;;;;;;;4993631;28;20162;-78
2020/12/19 06:46:56;;;;;;;68.03;31.57;;;;;;;;;;4993586;28;20177;-78
2020/12/19 06:49:22;;;;;;;78.10;32.20;;;;;;;;;;4993795;28;20166;-78
2020/12/19 06:51:57;;;;;;;73.13;31.67;;;;;;;;;;4993410;28;20240;-78
2020/12/19 06:54:28;;;;;;;74.67;29.87;;;;;;;;;;4993446;28;20196;-77
2020/12/19 06:56:53;;;;;;;68.87;24.97;;;;;;;;;;4993431;28;20526;-78
2020/12/19 06:59:26;;;;;;;77.13;38.37;;;;;;;;;;4993165;28;20169;-78
2020/12/19 07:01:51;;;;;;;60.03;24.20;;;;;;;;;;4993896;28;20198;-78
2020/12/19 07:04:34;;;;;;;57.07;27.40;;;;;;;;;;4993288;28;20527;-78
2020/12/19 07:07:00;;;;;;;82.53;28.60;;;;;;;;;;4993357;28;20180;-78
2020/12/19 07:09:29;;;;;;;65.70;24.07;;;;;;;;;;4993532;28;20173;-78
2020/12/19 07:11:55;;;;;;;153.70;50.13;;;;;;;;;;4993169;28;20204;-78
2020/12/19 07:14:20;;;;;;;188.50;56.13;;;;;;;;;;4992910;28;20222;-77
2020/12/19 07:16:46;;;;;;;101.17;34.17;;;;;;;;;;4993243;28;20162;-78
2020/12/19 07:19:24;;;;;;;59.30;25.60;;;;;;;;;;4993030;28;20285;-77
2020/12/19 07:21:50;;;;;;;72.03;21.50;;;;;;;;;;4993015;28;20161;-77
2020/12/19 07:24:15;;;;;;;52.67;20.57;;;;;;;;;;4993117;28;20178;-78
2020/12/19 07:26:41;;;;;;;52.93;23.17;;;;;;;;;;4993355;28;20170;-78
2020/12/19 07:29:22;;;;;;;82.20;27.13;;;;;;;;;;4993035;28;20166;-78
2020/12/19 07:31:49;;;;;;;75.53;29.33;;;;;;;;;;4992689;28;20165;-77
2020/12/19 07:34:15;;;;;;;61.70;25.50;;;;;;;;;;4992717;28;20193;-78
2020/12/19 07:36:41;;;;;;;76.27;25.97;;;;;;;;;;4992675;28;20192;-78
2020/12/19 07:39:07;;;;;;;95.40;35.73;;;;;;;;;;4992781;28;20301;-78
2020/12/19 07:41:33;;;;;;;109.03;36.90;;;;;;;;;;4993217;28;20194;-78
2020/12/19 07:44:08;;;;;;;62.77;27.83;;;;;;;;;;4993349;28;20577;-78
2020/12/19 07:46:33;;;;;;;71.73;26.53;;;;;;;;;;4996984;28;20252;-78
2020/12/19 07:48:59;;;;;;;57.43;28.70;;;;;;;;;;4997057;28;20204;-78
2020/12/19 07:51:24;;;;;;;81.60;28.10;;;;;;;;;;4996382;28;20617;-78
2020/12/19 07:53:49;;;;;;;81.17;29.10;;;;;;;;;;4996630;28;21059;-78
2020/12/19 07:56:15;;;;;;;84.80;27.73;;;;;;;;;;4996679;28;20186;-78
2020/12/19 07:58:42;;;;;;;78.57;31.40;;;;;;;;;;4996368;28;20166;-78
2020/12/19 08:01:07;;;;;;;65.37;29.13;;;;;;;;;;4996426;28;20236;-78
2020/12/19 08:03:33;;;;;;;59.03;27.63;;;;;;;;;;4996198;28;20178;-79
2020/12/19 08:05:58;;;;;;;51.60;26.10;;;;;;;;;;4996611;28;20699;-78
2020/12/19 08:08:23;;;;;;;46.70;22.67;;;;;;;;;;4996499;28;20516;-78
2020/12/19 08:10:49;;;;;;;43.97;24.47;;;;;;;;;;4996458;28;20170;-78
2020/12/19 08:13:17;;;;;;;50.23;24.43;;;;;;;;;;4996050;28;20204;-78
2020/12/19 08:15:42;;;;;;;43.97;23.33;;;;;;;;;;4996666;28;20174;-77
2020/12/19 08:18:08;;;;;;;54.60;28.87;;;;;;;;;;4996065;28;20174;-78
2020/12/19 08:20:35;;;;;;;46.90;24.60;;;;;;;;;;4997739;28;20186;-78
2020/12/19 08:23:02;;;;;;;50.33;26.80;;;;;;;;;;4996865;28;20193;-78
2020/12/19 08:25:29;;;;;;;55.40;26.17;;;;;;;;;;4994635;28;20174;-78
2020/12/19 08:27:54;;;;;;;46.67;26.03;;;;;;;;;;4994543;28;20277;-78
2020/12/19 08:30:30;;;;;;;43.67;24.93;;;;;;;;;;4995942;28;20684;-77
2020/12/19 08:33:00;;;;;;;39.63;22.07;;;;;;;;;;4995418;28;20269;-77
2020/12/19 08:35:27;;;;;;;51.40;28.07;;;;;;;;;;4995757;28;20236;-78
2020/12/19 08:38:08;;;;;;;58.00;33.87;;;;;;;;;;4995600;28;20579;-77
2020/12/19 08:40:34;;;;;;;48.93;30.70;;;;;;;;;;4994636;28;20232;-77
2020/12/19 08:42:59;;;;;;;56.23;28.43;;;;;;;;;;4995684;28;20272;-79
2020/12/19 08:45:26;;;;;;;44.67;26.80;;;;;;;;;;4976003;28;20296;-79
2020/12/19 08:47:52;;;;;;;41.50;22.90;;;;;;;;;;4993526;28;20237;-79
2020/12/19 08:50:25;;;;;;;41.30;24.80;;;;;;;;;;4995381;28;20598;-77
2020/12/19 08:53:00;;;;;;;35.30;19.83;;;;;;;;;;4995516;28;20198;-76
2020/12/19 08:55:26;;;;;;;37.10;23.27;;;;;;;;;;4994758;28;20204;-77
2020/12/19 08:57:51;;;;;;;42.43;24.53;;;;;;;;;;4995342;28;20174;-77
2020/12/19 09:00:16;;;;;;;50.90;29.97;;;;;;;;;;4995446;28;20222;-77
2020/12/19 09:02:42;;;;;;;38.47;23.37;;;;;;;;;;4995309;28;20269;-78
2020/12/19 09:05:08;;;;;;;39.10;23.37;;;;;;;;;;4996605;28;20228;-77
2020/12/19 09:07:34;;;;;;;39.37;24.23;;;;;;;;;;4996496;28;20257;-77
2020/12/19 09:09:59;;;;;;;54.17;35.27;;;;;;;;;;4996172;28;20213;-77
2020/12/19 09:12:25;;;;;;;33.23;20.80;;;;;;;;;;4996134;28;20205;-77
2020/12/19 09:14:50;;;;;;;43.30;28.10;;;;;;;;;;4995442;28;20269;-77
2020/12/19 09:17:28;;;;;;;37.07;22.60;;;;;;;;;;4995366;28;20178;-77
2020/12/19 09:20:01;;;;;;;29.10;18.73;;;;;;;;;;4993382;28;20600;-77
2020/12/19 09:22:26;;;;;;;58.23;36.30;;;;;;;;;;4996092;28;20185;-78
2020/12/19 09:24:51;;;;;;;40.27;23.70;;;;;;;;;;4995604;28;20247;-78
2020/12/19 09:27:17;;;;;;;40.87;24.07;;;;;;;;;;4995846;28;20170;-78
2020/12/19 09:29:42;;;;;;;40.80;25.40;;;;;;;;;;4995529;28;20174;-78
2020/12/19 09:32:07;;;;;;;39.87;25.77;;;;;;;;;;4995660;28;20174;-77
2020/12/19 09:34:33;;;;;;;48.60;34.27;;;;;;;;;;4994055;28;20170;-77
2020/12/19 09:36:58;;;;;;;41.30;24.40;;;;;;;;;;4994061;28;20186;-80
2020/12/19 09:39:23;;;;;;;30.93;20.33;;;;;;;;;;4994042;28;20228;-78
2020/12/19 09:41:49;;;;;;;36.27;22.10;;;;;;;;;;4994005;28;20719;-81
2020/12/19 09:44:14;;;;;;;42.67;29.10;;;;;;;;;;4995238;28;20552;-77
2020/12/19 09:46:39;;;;;;;38.93;24.27;;;;;;;;;;4993847;28;20231;-78
2020/12/19 09:49:05;;;;;;;51.80;31.83;;;;;;;;;;4995412;28;20178;-77
2020/12/19 09:51:30;;;;;;;51.23;31.07;;;;;;;;;;4995375;28;20185;-77
2020/12/19 09:53:55;;;;;;;30.90;19.73;;;;;;;;;;4996253;28;20232;-77
2020/12/19 09:56:21;;;;;;;49.47;34.10;;;;;;;;;;4995133;28;20213;-78
2020/12/19 09:58:46;;;;;;;84.87;46.90;;;;;;;;;;4995868;28;20173;-77
2020/12/19 10:01:13;;;;;;;44.57;29.73;;;;;;;;;;4995033;28;20742;-77
2020/12/19 10:03:38;;;;;;;48.67;28.27;;;;;;;;;;4995812;28;20178;-78
2020/12/19 10:06:03;;;;;;;44.60;26.33;;;;;;;;;;4995291;28;20181;-77
2020/12/19 10:08:29;;;;;;;41.33;25.43;;;;;;;;;;4995305;28;20244;-77
2020/12/19 10:10:54;;;;;;;36.00;22.70;;;;;;;;;;4995413;28;20174;-77
2020/12/19 10:13:19;;;;;;;36.10;23.03;;;;;;;;;;4995050;28;20292;-78
2020/12/19 10:15:45;;;;;;;41.63;26.57;;;;;;;;;;4994832;28;20177;-78
2020/12/19 10:18:10;;;;;;;37.13;24.70;;;;;;;;;;4994335;28;20174;-78
2020/12/19 10:20:35;;;;;;;46.77;29.90;;;;;;;;;;4994401;28;20184;-77
2020/12/19 10:23:01;;;;;;;48.90;28.90;;;;;;;;;;4995431;28;20180;-77
2020/12/19 10:25:26;;;;;;;73.00;36.93;;;;;;;;;;4995410;28;20166;-77
2020/12/19 10:27:52;;;;;;;72.93;41.53;;;;;;;;;;4994962;28;20170;-77
2020/12/19 10:30:17;;;;;;;61.47;38.07;;;;;;;;;;4995569;28;20188;-78
2020/12/19 10:32:43;;;;;;;43.63;27.77;;;;;;;;;;4994535;28;20547;-78
2020/12/19 10:35:08;;;;;;;43.80;28.70;;;;;;;;;;5006253;28;20189;-78
2020/12/19 10:37:34;;;;;;;48.17;29.80;;;;;;;;;;4994939;28;20173;-78
2020/12/19 10:39:59;;;;;;;48.77;33.23;;;;;;;;;;4994746;28;20198;-78
2020/12/19 10:42:25;;;;;;;44.63;28.67;;;;;;;;;;4991640;28;20232;-78
2020/12/19 10:44:50;;;;;;;44.23;28.17;;;;;;;;;;4994371;28;20178;-78
2020/12/19 10:47:15;;;;;;;42.80;24.23;;;;;;;;;;4994541;28;20174;-77
2020/12/19 10:49:41;;;;;;;52.23;31.87;;;;;;;;;;4995301;28;20674;-77
2020/12/19 10:52:06;;;;;;;51.10;31.70;;;;;;;;;;4976673;28;20546;-77
2020/12/19 10:54:32;;;;;;;41.83;28.23;;;;;;;;;;4994246;28;20228;-77
2020/12/19 10:56:57;;;;;;;44.67;29.13;;;;;;;;;;4994562;28;20170;-78
2020/12/19 10:59:23;;;;;;;41.37;27.03;;;;;;;;;;4994239;28;20180;-78
2020/12/19 11:01:48;;;;;;;37.37;24.20;;;;;;;;;;4994234;28;20568;-78
2020/12/19 11:04:14;;;;;;;46.03;28.40;;;;;;;;;;4994257;28;20178;-78
2020/12/19 11:06:39;;;;;;;66.50;38.43;;;;;;;;;;4994448;28;20176;-78
2020/12/19 11:09:05;;;;;;;53.67;33.83;;;;;;;;;;4994468;28;20172;-77
2020/12/19 11:11:30;;;;;;;43.33;27.60;;;;;;;;;;4994265;28;20177;-78
2020/12/19 11:13:56;;;;;;;58.10;37.83;;;;;;;;;;4994658;28;20202;-78
2020/12/19 11:16:21;;;;;;;71.57;48.47;;;;;;;;;;4994437;28;20201;-78
2020/12/19 11:18:50;;;;;;;74.97;49.67;;;;;;;;;;4995933;28;20166;-77
2020/12/19 11:21:15;;;;;;;74.50;44.97;;;;;;;;;;5001058;28;20256;-77
2020/12/19 11:23:41;;;;;;;61.70;39.53;;;;;;;;;;5000859;28;20666;-78
2020/12/19 11:26:06;;;;;;;45.40;29.30;;;;;;;;;;5000911;28;20300;-78
2020/12/19 11:28:32;;;;;;;46.27;30.43;;;;;;;;;;5001365;28;20173;-77
2020/12/19 11:30:57;;;;;;;45.93;30.50;;;;;;;;;;5001077;28;20608;-77
2020/12/19 11:33:22;;;;;;;57.87;35.60;;;;;;;;;;5000841;28;20197;-77
2020/12/19 11:35:48;;;;;;;47.70;30.90;;;;;;;;;;5000547;28;20177;-78
2020/12/19 11:38:13;;;;;;;55.47;37.70;;;;;;;;;;5000776;28;20180;-77
2020/12/19 11:40:40;;;;;;;57.33;34.63;;;;;;;;;;5001020;28;20201;-77
2020/12/19 11:43:05;;;;;;;61.07;38.13;;;;;;;;;;5000907;28;20184;-78
2020/12/19 11:45:30;;;;;;;66.97;40.40;;;;;;;;;;5000996;28;20173;-77
2020/12/19 11:47:56;;;;;;;39.17;26.57;;;;;;;;;;5000684;28;20176;-78
2020/12/19 11:50:21;;;;;;;35.83;22.57;;;;;;;;;;5002268;28;20178;-78
2020/12/19 11:52:46;;;;;;;38.80;24.97;;;;;;;;;;4999457;28;20327;-78
2020/12/19 11:55:12;;;;;;;46.57;30.60;;;;;;;;;;5000516;28;20646;-78
2020/12/19 11:57:38;;;;;;;43.90;28.97;;;;;;;;;;5000291;28;20181;-78
2020/12/19 12:00:04;;;;;;;44.50;28.17;;;;;;;;;;5000100;28;20236;-79
2020/12/19 12:02:29;;;;;;;50.40;32.53;;;;;;;;;;5001067;28;20170;-78
2020/12/19 12:04:54;;;;;;;48.13;30.63;;;;;;;;;;5000504;28;20197;-78
2020/12/19 12:07:20;;;;;;;38.40;24.07;;;;;;;;;;5000747;28;20182;-78
2020/12/19 12:09:45;;;;;;;35.90;23.00;;;;;;;;;;5000756;28;20176;-78
2020/12/19 12:12:10;;;;;;;34.95;21.95;;;;;;;;;;5000678;28;20170;-78
2020/12/19 12:14:36;;;;;;;34.40;21.83;;;;;;;;;;4999910;28;20624;-78
2020/12/19 12:17:01;;;;;;;36.53;22.10;;;;;;;;;;5000738;28;20498;-78
2020/12/19 12:19:26;;;;;;;49.80;31.53;;;;;;;;;;5000897;28;20177;-78
2020/12/19 12:21:52;;;;;;;56.30;37.70;;;;;;;;;;5000337;28;20647;-78
2020/12/19 12:24:17;;;;;;;52.93;31.60;;;;;;;;;;5000348;28;20180;-77
2020/12/19 12:26:42;;;;;;;55.67;34.07;;;;;;;;;;4998365;28;20249;-78
2020/12/19 12:29:08;;;;;;;129.83;74.80;;;;;;;;;;5000445;28;20202;-78
2020/12/19 12:31:35;;;;;;;64.37;37.67;;;;;;;;;;4996979;28;20609;-78
2020/12/19 12:34:00;;;;;;;63.67;40.77;;;;;;;;;;4994499;28;20213;-77
2020/12/19 12:36:31;;;;;;;55.27;34.20;;;;;;;;;;4997403;28;20494;-78
2020/12/19 12:38:56;;;;;;;140.60;77.27;;;;;;;;;;4997328;28;20170;-78
2020/12/19 12:41:22;;;;;;;88.97;55.23;;;;;;;;;;4996571;28;20173;-78
2020/12/19 12:43:47;;;;;;;95.17;54.67;;;;;;;;;;4996490;28;20182;-78
2020/12/19 12:46:13;;;;;;;102.30;57.77;;;;;;;;;;4996719;28;20181;-77
2020/12/19 12:48:38;;;;;;;43.03;26.27;;;;;;;;;;4996994;28;20646;-77
2020/12/19 12:51:08;;;;;;;56.47;35.17;;;;;;;;;;4997176;28;20210;-77
2020/12/19 12:53:33;;;;;;;60.00;36.83;;;;;;;;;;4996509;28;20214;-78
2020/12/19 12:55:58;;;;;;;54.00;33.20;;;;;;;;;;4995062;28;20207;-78
2020/12/19 12:58:24;;;;;;;80.67;52.70;;;;;;;;;;4997005;28;20252;-78
2020/12/19 13:00:49;;;;;;;65.60;39.00;;;;;;;;;;4996111;28;20247;-77
2020/12/19 13:03:15;;;;;;;65.03;37.50;;;;;;;;;;4996419;28;20170;-77
2020/12/19 13:05:40;;;;;;;68.47;39.83;;;;;;;;;;4997120;28;20178;-77
2020/12/19 13:08:05;;;;;;;74.07;46.53;;;;;;;;;;4996906;28;20182;-78
2020/12/19 13:10:31;;;;;;;62.17;37.57;;;;;;;;;;4996535;28;20204;-77
2020/12/19 13:12:56;;;;;;;88.80;49.33;;;;;;;;;;4996687;28;20205;-78
2020/12/19 13:15:21;;;;;;;68.70;40.27;;;;;;;;;;4996446;28;20181;-78
2020/12/19 13:17:47;;;;;;;89.93;49.90;;;;;;;;;;4996668;28;20166;-78
2020/12/19 13:20:12;;;;;;;111.10;60.53;;;;;;;;;;5003496;28;20532;-78
2020/12/19 13:22:37;;;;;;;134.93;56.97;;;;;;;;;;4999376;28;20185;-78
2020/12/19 13:25:03;;;;;;;218.23;90.13;;;;;;;;;;4996507;28;20174;-77
2020/12/19 13:27:28;;;;;;;79.60;42.57;;;;;;;;;;4996222;28;20173;-77
2020/12/19 13:29:53;;;;;;;85.47;41.20;;;;;;;;;;4995232;28;20177;-78
2020/12/19 13:32:19;;;;;;;197.57;77.23;;;;;;;;;;4995161;28;20189;-77
2020/12/19 13:34:44;;;;;;;226.63;96.40;;;;;;;;;;4996304;28;20177;-78
2020/12/19 13:37:09;;;;;;;71.53;44.23;;;;;;;;;;4996265;28;20178;-78
2020/12/19 13:39:37;;;;;;;99.73;57.67;;;;;;;;;;4995140;28;20176;-78
2020/12/19 13:42:03;;;;;;;69.87;41.17;;;;;;;;;;4995352;28;20174;-78
2020/12/19 13:44:28;;;;;;;99.87;51.23;;;;;;;;;;4995390;28;20244;-78
2020/12/19 13:46:54;;;;;;;99.73;53.00;;;;;;;;;;4995494;28;20647;-78
2020/12/19 13:49:20;;;;;;;133.60;66.53;;;;;;;;;;4995801;28;20265;-78
2020/12/19 13:51:45;;;;;;;113.53;60.10;;;;;;;;;;4996317;28;20264;-77
2020/12/19 13:54:10;;;;;;;274.77;98.07;;;;;;;;;;4995600;28;20194;-78
2020/12/19 13:56:39;;;;;;;254.30;93.93;;;;;;;;;;4995938;28;20591;-79
2020/12/19 13:59:05;;;;;;;62.97;33.93;;;;;;;;;;4995458;28;20687;-79
2020/12/19 14:01:34;;;;;;;72.67;42.17;;;;;;;;;;4995653;28;20221;-78
2020/12/19 14:04:00;;;;;;;76.10;41.43;;;;;;;;;;4995529;28;20678;-79